Time;durP1;ratioP1;P1;durP2;ratioP2;P2;SDS_P1;SDS_P2;PMS_P1;PMS_P2;Temp;Humidity;BMP_temperature;BMP_pressure;BME280_temperature;BME280_humidity;BME280_pressure;Samples;Min_cycle;Max_cycle;Signal;HPM_P1;HPM_P2
2023/12/12 10:01:55;;;;;;;9.23;4.50;;;;;;;8.10;100.00;98089.38;5045350;28;20563;-82
2023/12/12 10:04:24;;;;;;;10.30;4.53;;;;;;;9.08;100.00;98073.16;5027941;28;39261;-82
2023/12/12 10:06:54;;;;;;;8.47;4.40;;;;;;;9.80;100.00;98071.56;5027303;28;40645;-83
2023/12/12 10:09:22;;;;;;;8.00;3.93;;;;;;;10.15;100.00;98056.63;5027502;28;41795;-83
2023/12/12 10:11:49;;;;;;;8.30;4.37;;;;;;;10.50;100.00;98083.19;5027328;28;43170;-83
2023/12/12 10:14:38;;;;;;;9.07;5.13;;;;;;;10.82;100.00;98082.56;5027496;28;41077;-84
2023/12/12 10:17:10;;;;;;;10.47;5.97;;;;;;;11.04;100.00;98072.84;5044284;28;42496;-83
2023/12/12 10:19:38;;;;;;;12.13;5.87;;;;;;;11.13;100.00;98050.94;5027136;28;42579;-82
2023/12/12 10:22:06;;;;;;;11.43;6.37;;;;;;;11.26;100.00;98028.78;5077617;28;42423;-83
2023/12/12 10:24:34;;;;;;;11.93;6.53;;;;;;;11.65;100.00;98061.91;5060637;28;39042;-83
2023/12/12 10:27:03;;;;;;;9.47;5.13;;;;;;;11.85;99.45;98071.81;5027335;28;40277;-83
2023/12/12 10:29:31;;;;;;;13.50;5.30;;;;;;;12.03;98.30;98053.56;5060843;28;41470;-83
2023/12/12 10:32:00;;;;;;;7.70;5.20;;;;;;;12.07;96.71;98041.75;5060580;27;41380;-83
2023/12/12 10:34:30;;;;;;;9.60;5.60;;;;;;;12.25;95.47;98048.19;5044142;28;41339;-83
2023/12/12 10:36:59;;;;;;;10.47;4.87;;;;;;;12.54;93.02;98053.75;5027145;28;42322;-83
2023/12/12 10:39:30;;;;;;;18.17;9.57;;;;;;;12.59;92.01;98057.72;5026985;28;43237;-83
2023/12/12 10:41:58;;;;;;;18.50;10.67;;;;;;;12.51;89.97;98051.34;5026873;28;41494;-83
2023/12/12 10:44:32;;;;;;;12.47;7.60;;;;;;;12.60;90.03;98034.66;5027120;28;40384;-83
2023/12/12 10:47:01;;;;;;;14.17;6.83;;;;;;;12.62;89.55;98018.56;5040982;28;41898;-83
2023/12/12 10:49:32;;;;;;;10.07;5.80;;;;;;;12.56;90.10;97996.88;5043348;28;43456;-83
2023/12/12 10:52:03;;;;;;;10.53;5.90;;;;;;;12.59;89.97;98009.06;5026988;28;41521;-83
2023/12/12 10:54:33;;;;;;;10.07;5.97;;;;;;;12.64;89.96;98013.97;5026996;28;38922;-83
2023/12/12 10:57:02;;;;;;;9.87;4.70;;;;;;;12.69;89.30;97985.22;5026788;28;41722;-84
2023/12/12 10:59:31;;;;;;;8.30;4.87;;;;;;;12.82;88.60;97986.72;5042506;28;43720;-83
2023/12/12 11:02:00;;;;;;;11.50;5.10;;;;;;;12.93;88.43;97968.03;5026884;27;41531;-83
2023/12/12 11:04:30;;;;;;;9.47;5.20;;;;;;;13.15;87.74;97972.34;5027135;28;41534;-84
2023/12/12 11:06:58;;;;;;;11.80;4.80;;;;;;;13.27;86.17;97973.94;5043477;28;41516;-83
2023/12/12 11:09:26;;;;;;;9.10;3.50;;;;;;;13.13;86.31;97944.19;5076647;28;43132;-84
2023/12/12 11:11:55;;;;;;;8.90;3.80;;;;;;;13.33;86.22;97971.72;5020506;28;42617;-84
2023/12/12 11:14:24;;;;;;;8.73;3.50;;;;;;;13.13;86.22;97947.69;5013576;28;40172;-83
2023/12/12 11:16:58;;;;;;;7.07;3.50;;;;;;;13.20;85.51;97964.81;5013694;28;42859;-83
2023/12/12 11:19:27;;;;;;;11.57;4.17;;;;;;;13.25;84.96;97972.38;5029811;28;42201;-83
2023/12/12 11:21:56;;;;;;;8.37;3.13;;;;;;;13.18;84.94;97966.78;5013258;28;43916;-84
2023/12/12 11:25:07;;;;;;;6.40;2.83;;;;;;;13.15;85.00;97955.56;5013126;28;41246;-83
2023/12/12 11:27:39;;;;;;;6.27;3.13;;;;;;;13.14;85.23;97949.41;5013259;28;41824;-83
2023/12/12 11:30:08;;;;;;;6.97;2.37;;;;;;;13.16;84.60;97954.59;5061299;28;43098;-83
2023/12/12 11:32:35;;;;;;;5.87;2.97;;;;;;;13.04;84.20;97937.84;5013391;28;43107;-83
2023/12/12 11:35:08;;;;;;;4.67;1.90;;;;;;;12.97;84.64;97910.16;5013180;28;38596;-83
2023/12/12 11:37:41;;;;;;;6.67;2.37;;;;;;;13.18;84.50;97945.50;5013475;28;40948;-83
2023/12/12 11:40:11;;;;;;;6.83;2.30;;;;;;;13.21;83.98;97945.25;5046025;27;41756;-83
2023/12/12 11:42:42;;;;;;;5.27;2.00;;;;;;;13.11;83.51;97928.34;5013298;28;41547;-83
2023/12/12 11:45:10;;;;;;;4.87;1.90;;;;;;;13.18;82.86;97940.19;5015226;28;41605;-84
2023/12/12 11:47:38;;;;;;;2.23;1.60;;;;;;;13.15;83.38;97911.22;5016060;28;42302;-83
2023/12/12 11:50:30;;;;;;;4.40;1.93;;;;;;;13.26;83.67;97911.09;5034021;28;42844;-83
2023/12/12 11:53:01;;;;;;;5.07;1.90;;;;;;;13.15;83.04;97897.91;5016736;28;41448;-82
2023/12/12 11:55:31;;;;;;;4.93;2.07;;;;;;;13.17;81.51;97901.28;5017518;28;40217;-82
2023/12/12 11:58:05;;;;;;;3.33;1.50;;;;;;;13.28;82.08;97903.84;5031341;28;41565;-83
2023/12/12 12:00:35;;;;;;;3.97;1.83;;;;;;;13.21;82.46;97886.75;5012313;28;42591;-82
2023/12/12 12:03:04;;;;;;;5.17;1.77;;;;;;;13.24;82.52;97875.81;5013029;28;41674;-83
2023/12/12 12:05:32;;;;;;;4.67;1.77;;;;;;;13.28;81.88;97877.25;5013370;28;38948;-83
2023/12/12 12:08:03;;;;;;;4.30;1.73;;;;;;;13.17;81.71;97858.75;5046218;28;40990;-83
2023/12/12 12:10:31;;;;;;;3.37;1.43;;;;;;;13.24;81.83;97865.19;5028221;28;43810;-83
2023/12/12 12:12:59;;;;;;;4.50;1.83;;;;;;;13.34;82.14;97875.03;5012838;28;41266;-83
2023/12/12 12:15:28;;;;;;;5.00;1.67;;;;;;;13.27;82.07;97864.09;5013005;28;39000;-83
2023/12/12 12:17:57;;;;;;;2.57;1.47;;;;;;;13.26;82.27;97857.94;5029206;28;43007;-84
2023/12/12 12:20:24;;;;;;;4.00;1.60;;;;;;;13.23;81.80;97860.84;5012438;28;42076;-83
2023/12/12 12:22:52;;;;;;;5.27;1.80;;;;;;;13.22;81.92;97859.19;5012492;28;41636;-83
2023/12/12 12:25:34;;;;;;;4.57;1.73;;;;;;;13.17;81.83;97853.44;5029406;28;40695;-83
2023/12/12 12:28:03;;;;;;;4.03;1.50;;;;;;;13.21;82.31;97860.16;5026441;28;42183;-83
2023/12/12 12:30:44;;;;;;;3.10;1.77;;;;;;;13.14;82.21;97836.88;5012471;28;42654;-83
2023/12/12 12:33:11;;;;;;;2.47;1.57;;;;;;;13.12;82.11;97833.50;5012665;28;40980;-83
2023/12/12 12:35:51;;;;;;;5.47;2.20;;;;;;;13.19;81.34;97846.16;5012526;28;40270;-83
2023/12/12 12:38:25;;;;;;;3.93;1.83;;;;;;;13.18;80.95;97839.16;5012900;28;42142;-82
2023/12/12 12:40:55;;;;;;;4.30;2.40;;;;;;;13.02;80.12;97804.25;5028535;27;42085;-83
2023/12/12 12:43:23;;;;;;;3.90;1.90;;;;;;;13.06;79.55;97808.34;5029064;28;42450;-83
2023/12/12 12:45:51;;;;;;;3.07;1.87;;;;;;;13.03;79.52;97805.94;5012458;28;40070;-83
2023/12/12 12:48:19;;;;;;;4.13;2.00;;;;;;;13.14;80.32;97823.59;5029286;28;42053;-83
2023/12/12 12:50:48;;;;;;;3.90;1.60;;;;;;;13.08;79.67;97817.00;5028992;28;42795;-85
2023/12/12 12:53:15;;;;;;;3.03;1.47;;;;;;;13.01;79.83;97797.25;5012602;28;42200;-83
2023/12/12 12:55:43;;;;;;;1.87;1.30;;;;;;;12.99;79.99;97791.22;5012308;28;40192;-83
2023/12/12 12:58:14;;;;;;;2.87;1.70;;;;;;;13.04;80.13;97798.81;5012507;28;41105;-83
2023/12/12 13:00:42;;;;;;;2.40;1.50;;;;;;;12.98;80.20;97800.22;5012123;28;41848;-83
2023/12/12 13:03:09;;;;;;;3.87;2.10;;;;;;;12.94;80.23;97793.47;5029768;28;42421;-83
2023/12/12 13:05:38;;;;;;;3.93;2.50;;;;;;;12.82;80.20;97790.09;5012099;28;38647;-83
